sensor_id;sensor_type;location;lat;lon;timestamp;pressure;altitude;pressure_sealevel;temperature;humidity
60642;BME280;46837;52.446;-1.930;2023-05-10T00:00:09;99732.71;;;11.48;81.79
60642;BME280;46837;52.446;-1.930;2023-05-10T00:01:09;99734.26;;;11.45;81.89
60642;BME280;46837;52.446;-1.930;2023-05-10T00:02:09;99732.62;;;11.46;81.86
60642;BME280;46837;52.446;-1.930;2023-05-10T00:03:09;99733.17;;;11.45;81.74
60642;BME280;46837;52.446;-1.930;2023-05-10T00:04:09;99730.46;;;11.44;81.64
60642;BME280;46837;52.446;-1.930;2023-05-10T00:05:09;99730.76;;;11.45;81.72
60642;BME280;46837;52.446;-1.930;2023-05-10T00:06:09;99734.48;;;11.44;81.64
60642;BME280;46837;52.446;-1.930;2023-05-10T00:07:09;99731.66;;;11.36;81.62
60642;BME280;46837;52.446;-1.930;2023-05-10T00:08:09;99736.47;;;11.37;81.88
60642;BME280;46837;52.446;-1.930;2023-05-10T00:09:09;99732.39;;;11.32;81.97
60642;BME280;46837;52.446;-1.930;2023-05-10T00:10:09;99735.76;;;11.28;82.15
60642;BME280;46837;52.446;-1.930;2023-05-10T00:11:09;99736.96;;;11.29;82.21
60642;BME280;46837;52.446;-1.930;2023-05-10T00:12:09;99736.22;;;11.26;82.13
60642;BME280;46837;52.446;-1.930;2023-05-10T00:13:09;99733.84;;;11.22;82.24
60642;BME280;46837;52.446;-1.930;2023-05-10T00:14:09;99739.22;;;11.19;82.51
60642;BME280;46837;52.446;-1.930;2023-05-10T00:15:09;99736.16;;;11.17;82.51
60642;BME280;46837;52.446;-1.930;2023-05-10T00:16:09;99741.27;;;11.16;82.54
60642;BME280;46837;52.446;-1.930;2023-05-10T00:17:09;99737.88;;;11.13;82.62
60642;BME280;46837;52.446;-1.930;2023-05-10T00:18:09;99737.27;;;11.15;82.66
60642;BME280;46837;52.446;-1.930;2023-05-10T00:19:09;99739.08;;;11.14;82.46
60642;BME280;46837;52.446;-1.930;2023-05-10T00:20:09;99737.88;;;11.16;82.58
60642;BME280;46837;52.446;-1.930;2023-05-10T00:21:09;99740.01;;;11.15;82.41
60642;BME280;46837;52.446;-1.930;2023-05-10T00:22:09;99739.00;;;11.17;82.42
60642;BME280;46837;52.446;-1.930;2023-05-10T00:23:09;99738.26;;;11.13;82.36
60642;BME280;46837;52.446;-1.930;2023-05-10T00:24:09;99740.36;;;11.09;82.41
60642;BME280;46837;52.446;-1.930;2023-05-10T00:25:09;99738.74;;;11.08;82.51
60642;BME280;46837;52.446;-1.930;2023-05-10T00:26:09;99738.83;;;11.09;82.49
60642;BME280;46837;52.446;-1.930;2023-05-10T00:27:09;99742.87;;;11.10;82.41
60642;BME280;46837;52.446;-1.930;2023-05-10T00:28:09;99739.75;;;11.10;82.30
60642;BME280;46837;52.446;-1.930;2023-05-10T00:29:09;99740.05;;;11.07;82.35
60642;BME280;46837;52.446;-1.930;2023-05-10T00:30:09;99739.34;;;11.06;82.37
60642;BME280;46837;52.446;-1.930;2023-05-10T00:31:09;99736.82;;;11.07;82.34
60642;BME280;46837;52.446;-1.930;2023-05-10T00:32:09;99740.27;;;11.06;82.26
60642;BME280;46837;52.446;-1.930;2023-05-10T00:33:09;99738.63;;;11.07;82.24
60642;BME280;46837;52.446;-1.930;2023-05-10T00:34:09;99738.19;;;11.07;82.12
60642;BME280;46837;52.446;-1.930;2023-05-10T00:35:09;99735.18;;;11.06;82.13
60642;BME280;46837;52.446;-1.930;2023-05-10T00:36:10;99733.38;;;11.06;82.21
60642;BME280;46837;52.446;-1.930;2023-05-10T00:37:09;99732.83;;;11.09;82.17
60642;BME280;46837;52.446;-1.930;2023-05-10T00:38:09;99731.77;;;11.09;82.13
60642;BME280;46837;52.446;-1.930;2023-05-10T00:39:09;99731.41;;;11.06;82.08
60642;BME280;46837;52.446;-1.930;2023-05-10T00:40:09;99727.64;;;11.06;82.19
60642;BME280;46837;52.446;-1.930;2023-05-10T00:41:09;99728.16;;;11.10;82.17
60642;BME280;46837;52.446;-1.930;2023-05-10T00:42:09;99726.45;;;11.15;82.08
60642;BME280;46837;52.446;-1.930;2023-05-10T00:43:09;99724.58;;;11.16;81.88
60642;BME280;46837;52.446;-1.930;2023-05-10T00:44:09;99725.87;;;11.11;81.69
60642;BME280;46837;52.446;-1.930;2023-05-10T00:45:09;99725.45;;;11.09;81.87
60642;BME280;46837;52.446;-1.930;2023-05-10T00:46:09;99724.76;;;11.05;82.03
60642;BME280;46837;52.446;-1.930;2023-05-10T00:47:09;99722.14;;;11.02;82.07
60642;BME280;46837;52.446;-1.930;2023-05-10T00:48:09;99727.64;;;11.06;82.11
60642;BME280;46837;52.446;-1.930;2023-05-10T00:49:09;99724.43;;;11.04;82.05
60642;BME280;46837;52.446;-1.930;2023-05-10T00:50:09;99725.80;;;11.05;81.94
60642;BME280;46837;52.446;-1.930;2023-05-10T00:51:09;99726.34;;;11.04;81.90
60642;BME280;46837;52.446;-1.930;2023-05-10T00:52:09;99728.01;;;11.01;81.99
60642;BME280;46837;52.446;-1.930;2023-05-10T00:53:09;99725.33;;;11.01;82.01
60642;BME280;46837;52.446;-1.930;2023-05-10T00:54:10;99727.57;;;11.01;82.04
60642;BME280;46837;52.446;-1.930;2023-05-10T00:55:09;99727.44;;;11.03;81.98
60642;BME280;46837;52.446;-1.930;2023-05-10T00:56:09;99726.07;;;11.05;81.83
60642;BME280;46837;52.446;-1.930;2023-05-10T00:57:09;99726.29;;;11.03;81.70
60642;BME280;46837;52.446;-1.930;2023-05-10T00:58:09;99725.20;;;11.05;81.75
60642;BME280;46837;52.446;-1.930;2023-05-10T00:59:09;99726.42;;;11.02;81.71
60642;BME280;46837;52.446;-1.930;2023-05-10T01:00:09;99726.20;;;11.01;81.71
60642;BME280;46837;52.446;-1.930;2023-05-10T01:01:09;99726.31;;;11.02;81.74
60642;BME280;46837;52.446;-1.930;2023-05-10T01:02:09;99725.60;;;10.99;81.68
60642;BME280;46837;52.446;-1.930;2023-05-10T01:03:09;99726.80;;;10.99;81.66
60642;BME280;46837;52.446;-1.930;2023-05-10T01:04:09;99724.78;;;10.99;81.64
60642;BME280;46837;52.446;-1.930;2023-05-10T01:05:09;99727.86;;;10.96;81.64
60642;BME280;46837;52.446;-1.930;2023-05-10T01:06:09;99729.42;;;10.94;81.83
60642;BME280;46837;52.446;-1.930;2023-05-10T01:07:09;99724.91;;;10.96;81.82
60642;BME280;46837;52.446;-1.930;2023-05-10T01:08:09;99730.56;;;10.94;81.76
60642;BME280;46837;52.446;-1.930;2023-05-10T01:09:09;99729.96;;;10.93;81.60
60642;BME280;46837;52.446;-1.930;2023-05-10T01:10:09;99729.09;;;10.92;81.49
60642;BME280;46837;52.446;-1.930;2023-05-10T01:11:09;99725.28;;;10.89;81.49
60642;BME280;46837;52.446;-1.930;2023-05-10T01:12:09;99725.71;;;10.89;81.45
60642;BME280;46837;52.446;-1.930;2023-05-10T01:13:09;99725.71;;;10.90;81.38
60642;BME280;46837;52.446;-1.930;2023-05-10T01:14:09;99722.57;;;10.86;81.21
60642;BME280;46837;52.446;-1.930;2023-05-10T01:15:09;99724.54;;;10.85;81.26
60642;BME280;46837;52.446;-1.930;2023-05-10T01:16:09;99725.64;;;10.82;81.36
60642;BME280;46837;52.446;-1.930;2023-05-10T01:17:09;99728.32;;;10.82;81.39
60642;BME280;46837;52.446;-1.930;2023-05-10T01:18:09;99723.95;;;10.84;81.40
60642;BME280;46837;52.446;-1.930;2023-05-10T01:19:17;99724.37;;;10.85;81.35
60642;BME280;46837;52.446;-1.930;2023-05-10T01:20:09;99727.23;;;10.83;81.30
60642;BME280;46837;52.446;-1.930;2023-05-10T01:26:19;99730.27;;;10.77;81.46
60642;BME280;46837;52.446;-1.930;2023-05-10T01:28:16;99730.87;;;10.74;81.43
60642;BME280;46837;52.446;-1.930;2023-05-10T01:30:18;99729.45;;;10.74;81.44
60642;BME280;46837;52.446;-1.930;2023-05-10T01:31:18;99730.18;;;10.72;81.39
60642;BME280;46837;52.446;-1.930;2023-05-10T01:32:16;99727.34;;;10.72;81.39
60642;BME280;46837;52.446;-1.930;2023-05-10T01:33:15;99731.93;;;10.72;81.28
60642;BME280;46837;52.446;-1.930;2023-05-10T01:34:13;99730.89;;;10.72;81.26
60642;BME280;46837;52.446;-1.930;2023-05-10T01:37:16;99731.02;;;10.70;81.13
60642;BME280;46837;52.446;-1.930;2023-05-10T01:38:17;99731.73;;;10.69;81.08
60642;BME280;46837;52.446;-1.930;2023-05-10T01:39:17;99729.27;;;10.69;81.16
60642;BME280;46837;52.446;-1.930;2023-05-10T01:40:16;99730.36;;;10.70;81.19
60642;BME280;46837;52.446;-1.930;2023-05-10T01:42:11;99732.05;;;10.67;81.16
60642;BME280;46837;52.446;-1.930;2023-05-10T01:43:15;99731.74;;;10.67;81.05
60642;BME280;46837;52.446;-1.930;2023-05-10T01:46:17;99733.11;;;10.64;81.08
60642;BME280;46837;52.446;-1.930;2023-05-10T01:47:17;99732.61;;;10.63;80.95
60642;BME280;46837;52.446;-1.930;2023-05-10T01:48:10;99736.07;;;10.62;80.91
60642;BME280;46837;52.446;-1.930;2023-05-10T01:49:10;99735.47;;;10.60;80.96
60642;BME280;46837;52.446;-1.930;2023-05-10T01:50:15;99740.02;;;10.57;81.00
60642;BME280;46837;52.446;-1.930;2023-05-10T01:51:09;99735.81;;;10.57;81.05
60642;BME280;46837;52.446;-1.930;2023-05-10T01:52:10;99735.88;;;10.54;81.06
60642;BME280;46837;52.446;-1.930;2023-05-10T01:53:09;99736.61;;;10.49;81.15
60642;BME280;46837;52.446;-1.930;2023-05-10T01:54:09;99734.94;;;10.45;81.28
60642;BME280;46837;52.446;-1.930;2023-05-10T01:55:13;99732.17;;;10.41;81.52
60642;BME280;46837;52.446;-1.930;2023-05-10T01:56:09;99732.26;;;10.43;81.73
60642;BME280;46837;52.446;-1.930;2023-05-10T01:57:09;99733.25;;;10.44;81.65
60642;BME280;46837;52.446;-1.930;2023-05-10T01:58:09;99729.46;;;10.46;81.63
60642;BME280;46837;52.446;-1.930;2023-05-10T01:59:12;99729.08;;;10.46;81.58
60642;BME280;46837;52.446;-1.930;2023-05-10T02:00:09;99726.20;;;10.43;81.57
60642;BME280;46837;52.446;-1.930;2023-05-10T02:01:09;99726.64;;;10.44;81.66
60642;BME280;46837;52.446;-1.930;2023-05-10T02:02:09;99723.96;;;10.45;81.61
60642;BME280;46837;52.446;-1.930;2023-05-10T02:03:09;99725.00;;;10.44;81.50
60642;BME280;46837;52.446;-1.930;2023-05-10T02:04:09;99726.58;;;10.45;81.33
60642;BME280;46837;52.446;-1.930;2023-05-10T02:05:09;99727.13;;;10.45;81.37
60642;BME280;46837;52.446;-1.930;2023-05-10T02:06:09;99724.85;;;10.42;81.26
60642;BME280;46837;52.446;-1.930;2023-05-10T02:07:09;99723.32;;;10.40;81.30
60642;BME280;46837;52.446;-1.930;2023-05-10T02:08:09;99726.43;;;10.41;81.28
60642;BME280;46837;52.446;-1.930;2023-05-10T02:09:09;99731.51;;;10.39;81.24
60642;BME280;46837;52.446;-1.930;2023-05-10T02:10:09;99729.87;;;10.39;81.31
60642;BME280;46837;52.446;-1.930;2023-05-10T02:11:09;99731.14;;;10.37;81.35
60642;BME280;46837;52.446;-1.930;2023-05-10T02:12:09;99731.69;;;10.36;81.41
60642;BME280;46837;52.446;-1.930;2023-05-10T02:13:09;99734.47;;;10.37;81.40
60642;BME280;46837;52.446;-1.930;2023-05-10T02:14:10;99733.76;;;10.36;81.35
60642;BME280;46837;52.446;-1.930;2023-05-10T02:15:10;99732.14;;;10.34;81.26
60642;BME280;46837;52.446;-1.930;2023-05-10T02:16:09;99729.35;;;10.35;81.35
60642;BME280;46837;52.446;-1.930;2023-05-10T02:17:09;99727.73;;;10.32;81.37
60642;BME280;46837;52.446;-1.930;2023-05-10T02:18:09;99729.30;;;10.34;81.22
60642;BME280;46837;52.446;-1.930;2023-05-10T02:19:09;99726.69;;;10.31;81.18
60642;BME280;46837;52.446;-1.930;2023-05-10T02:20:09;99730.84;;;10.30;81.35
60642;BME280;46837;52.446;-1.930;2023-05-10T02:21:09;99731.93;;;10.30;81.33
60642;BME280;46837;52.446;-1.930;2023-05-10T02:22:09;99732.26;;;10.31;81.34
60642;BME280;46837;52.446;-1.930;2023-05-10T02:23:09;99735.54;;;10.32;81.26
60642;BME280;46837;52.446;-1.930;2023-05-10T02:24:09;99733.39;;;10.32;81.21
60642;BME280;46837;52.446;-1.930;2023-05-10T02:25:09;99735.31;;;10.35;81.10
60642;BME280;46837;52.446;-1.930;2023-05-10T02:26:09;99734.59;;;10.33;81.02
60642;BME280;46837;52.446;-1.930;2023-05-10T02:27:09;99736.83;;;10.34;81.01
60642;BME280;46837;52.446;-1.930;2023-05-10T02:28:09;99735.08;;;10.33;80.95
60642;BME280;46837;52.446;-1.930;2023-05-10T02:29:09;99733.64;;;10.28;81.01
60642;BME280;46837;52.446;-1.930;2023-05-10T02:30:09;99733.52;;;10.27;81.00
60642;BME280;46837;52.446;-1.930;2023-05-10T02:31:09;99735.98;;;10.26;80.99
60642;BME280;46837;52.446;-1.930;2023-05-10T02:32:09;99735.86;;;10.21;80.97
60642;BME280;46837;52.446;-1.930;2023-05-10T02:33:09;99733.51;;;10.20;81.17
60642;BME280;46837;52.446;-1.930;2023-05-10T02:34:09;99732.86;;;10.16;81.04
60642;BME280;46837;52.446;-1.930;2023-05-10T02:35:09;99733.08;;;10.16;81.13
60642;BME280;46837;52.446;-1.930;2023-05-10T02:36:09;99732.49;;;10.14;81.11
60642;BME280;46837;52.446;-1.930;2023-05-10T02:37:09;99738.27;;;10.12;81.17
60642;BME280;46837;52.446;-1.930;2023-05-10T02:38:09;99741.39;;;10.14;81.15
60642;BME280;46837;52.446;-1.930;2023-05-10T02:39:12;99742.26;;;10.13;80.93
60642;BME280;46837;52.446;-1.930;2023-05-10T02:40:09;99741.50;;;10.13;80.89
60642;BME280;46837;52.446;-1.930;2023-05-10T02:41:09;99742.32;;;10.10;80.94
60642;BME280;46837;52.446;-1.930;2023-05-10T02:42:12;99744.55;;;10.11;80.97
60642;BME280;46837;52.446;-1.930;2023-05-10T02:43:12;99744.88;;;10.08;80.89
60642;BME280;46837;52.446;-1.930;2023-05-10T02:44:09;99745.50;;;10.02;80.94
60642;BME280;46837;52.446;-1.930;2023-05-10T02:45:11;99744.95;;;10.02;81.13
60642;BME280;46837;52.446;-1.930;2023-05-10T02:46:09;99744.68;;;10.02;81.12
60642;BME280;46837;52.446;-1.930;2023-05-10T02:47:09;99746.22;;;10.00;81.15
60642;BME280;46837;52.446;-1.930;2023-05-10T02:48:09;99746.70;;;10.01;81.25
60642;BME280;46837;52.446;-1.930;2023-05-10T02:49:09;99744.95;;;10.01;81.22
60642;BME280;46837;52.446;-1.930;2023-05-10T02:50:09;99745.68;;;10.00;81.23
60642;BME280;46837;52.446;-1.930;2023-05-10T02:51:09;99746.04;;;10.01;81.29
60642;BME280;46837;52.446;-1.930;2023-05-10T02:52:09;99745.72;;;10.02;81.20
60642;BME280;46837;52.446;-1.930;2023-05-10T02:53:11;99745.77;;;9.97;81.20
60642;BME280;46837;52.446;-1.930;2023-05-10T02:54:11;99746.65;;;9.98;81.36
60642;BME280;46837;52.446;-1.930;2023-05-10T02:55:09;99747.48;;;9.97;81.48
60642;BME280;46837;52.446;-1.930;2023-05-10T02:56:19;99742.84;;;9.96;81.53
60642;BME280;46837;52.446;-1.930;2023-05-10T02:57:11;99743.17;;;9.96;81.46
60642;BME280;46837;52.446;-1.930;2023-05-10T02:58:09;99743.43;;;9.98;81.56
60642;BME280;46837;52.446;-1.930;2023-05-10T02:59:09;99743.49;;;9.99;81.42
60642;BME280;46837;52.446;-1.930;2023-05-10T03:00:09;99744.90;;;9.98;81.26
60642;BME280;46837;52.446;-1.930;2023-05-10T03:01:09;99746.76;;;9.94;81.30
60642;BME280;46837;52.446;-1.930;2023-05-10T03:02:09;99745.57;;;9.87;81.61
60642;BME280;46837;52.446;-1.930;2023-05-10T03:03:09;99749.88;;;9.91;81.71
60642;BME280;46837;52.446;-1.930;2023-05-10T03:04:09;99749.17;;;9.91;81.55
60642;BME280;46837;52.446;-1.930;2023-05-10T03:05:09;99748.67;;;9.93;81.53
60642;BME280;46837;52.446;-1.930;2023-05-10T03:06:09;99751.74;;;9.88;81.34
60642;BME280;46837;52.446;-1.930;2023-05-10T03:07:09;99750.05;;;9.85;81.55
60642;BME280;46837;52.446;-1.930;2023-05-10T03:08:09;99754.96;;;9.84;81.59
60642;BME280;46837;52.446;-1.930;2023-05-10T03:09:09;99755.95;;;9.78;81.78
60642;BME280;46837;52.446;-1.930;2023-05-10T03:10:09;99752.61;;;9.76;81.97
60642;BME280;46837;52.446;-1.930;2023-05-10T03:11:32;99754.15;;;9.73;81.98
60642;BME280;46837;52.446;-1.930;2023-05-10T03:14:16;99750.05;;;9.69;82.11
60642;BME280;46837;52.446;-1.930;2023-05-10T03:16:16;99753.67;;;9.71;82.18
60642;BME280;46837;52.446;-1.930;2023-05-10T03:18:15;99751.26;;;9.74;81.95
60642;BME280;46837;52.446;-1.930;2023-05-10T03:20:10;99744.60;;;9.73;82.08
60642;BME280;46837;52.446;-1.930;2023-05-10T03:21:10;99745.48;;;9.75;81.91
60642;BME280;46837;52.446;-1.930;2023-05-10T03:22:10;99744.94;;;9.76;81.75
60642;BME280;46837;52.446;-1.930;2023-05-10T03:24:09;99742.36;;;9.76;81.88
60642;BME280;46837;52.446;-1.930;2023-05-10T03:25:09;99745.42;;;9.77;81.77
60642;BME280;46837;52.446;-1.930;2023-05-10T03:26:09;99744.34;;;9.75;81.70
60642;BME280;46837;52.446;-1.930;2023-05-10T03:27:09;99742.97;;;9.75;81.65
60642;BME280;46837;52.446;-1.930;2023-05-10T03:28:09;99744.54;;;9.76;81.67
60642;BME280;46837;52.446;-1.930;2023-05-10T03:29:09;99742.31;;;9.77;81.48
60642;BME280;46837;52.446;-1.930;2023-05-10T03:30:12;99741.01;;;9.76;81.38
60642;BME280;46837;52.446;-1.930;2023-05-10T03:31:09;99741.17;;;9.78;81.42
60642;BME280;46837;52.446;-1.930;2023-05-10T03:32:09;99742.09;;;9.78;81.26
60642;BME280;46837;52.446;-1.930;2023-05-10T03:33:09;99743.30;;;9.79;81.24
60642;BME280;46837;52.446;-1.930;2023-05-10T03:34:09;99743.18;;;9.80;81.12
60642;BME280;46837;52.446;-1.930;2023-05-10T03:35:09;99743.73;;;9.78;81.05
60642;BME280;46837;52.446;-1.930;2023-05-10T03:36:09;99744.66;;;9.78;81.10
60642;BME280;46837;52.446;-1.930;2023-05-10T03:37:09;99744.27;;;9.77;80.96
60642;BME280;46837;52.446;-1.930;2023-05-10T03:38:09;99746.89;;;9.77;81.03
60642;BME280;46837;52.446;-1.930;2023-05-10T03:39:09;99746.72;;;9.76;80.96
60642;BME280;46837;52.446;-1.930;2023-05-10T03:40:09;99744.77;;;9.75;81.05
60642;BME280;46837;52.446;-1.930;2023-05-10T03:41:09;99745.32;;;9.75;81.06
60642;BME280;46837;52.446;-1.930;2023-05-10T03:42:09;99748.43;;;9.72;81.03
60642;BME280;46837;52.446;-1.930;2023-05-10T03:43:09;99747.22;;;9.73;81.07
60642;BME280;46837;52.446;-1.930;2023-05-10T03:44:09;99746.89;;;9.73;81.10
60642;BME280;46837;52.446;-1.930;2023-05-10T03:45:09;99747.88;;;9.74;80.94
60642;BME280;46837;52.446;-1.930;2023-05-10T03:46:09;99747.83;;;9.71;80.78
60642;BME280;46837;52.446;-1.930;2023-05-10T03:47:09;99752.19;;;9.71;80.79
60642;BME280;46837;52.446;-1.930;2023-05-10T03:48:09;99751.11;;;9.68;80.84
60642;BME280;46837;52.446;-1.930;2023-05-10T03:49:09;99753.72;;;9.68;80.88
60642;BME280;46837;52.446;-1.930;2023-05-10T03:50:09;99755.67;;;9.69;80.79
60642;BME280;46837;52.446;-1.930;2023-05-10T03:51:09;99755.84;;;9.69;80.64
60642;BME280;46837;52.446;-1.930;2023-05-10T03:52:09;99756.66;;;9.69;80.77
60642;BME280;46837;52.446;-1.930;2023-05-10T03:53:09;99754.27;;;9.68;80.67
60642;BME280;46837;52.446;-1.930;2023-05-10T03:54:09;99756.33;;;9.69;80.63
60642;BME280;46837;52.446;-1.930;2023-05-10T03:55:09;99755.95;;;9.66;80.60
60642;BME280;46837;52.446;-1.930;2023-05-10T03:56:09;99758.58;;;9.64;80.69
60642;BME280;46837;52.446;-1.930;2023-05-10T03:57:09;99757.43;;;9.60;80.57
60642;BME280;46837;52.446;-1.930;2023-05-10T03:58:11;99758.56;;;9.55;80.68
60642;BME280;46837;52.446;-1.930;2023-05-10T03:59:10;99755.39;;;9.51;80.69
60642;BME280;46837;52.446;-1.930;2023-05-10T04:00:09;99759.34;;;9.47;80.98
60642;BME280;46837;52.446;-1.930;2023-05-10T04:01:09;99755.45;;;9.42;81.11
60642;BME280;46837;52.446;-1.930;2023-05-10T04:02:09;99759.71;;;9.40;81.41
60642;BME280;46837;52.446;-1.930;2023-05-10T04:03:09;99756.54;;;9.42;81.45
60642;BME280;46837;52.446;-1.930;2023-05-10T04:04:09;99758.13;;;9.43;81.46
60642;BME280;46837;52.446;-1.930;2023-05-10T04:05:09;99758.55;;;9.44;81.48
60642;BME280;46837;52.446;-1.930;2023-05-10T04:06:09;99759.71;;;9.48;81.39
60642;BME280;46837;52.446;-1.930;2023-05-10T04:07:09;99757.92;;;9.50;81.27
60642;BME280;46837;52.446;-1.930;2023-05-10T04:08:09;99758.19;;;9.49;81.26
60642;BME280;46837;52.446;-1.930;2023-05-10T04:09:09;99758.68;;;9.49;81.32
60642;BME280;46837;52.446;-1.930;2023-05-10T04:10:09;99759.66;;;9.53;81.19
60642;BME280;46837;52.446;-1.930;2023-05-10T04:11:12;99760.20;;;9.52;81.07
60642;BME280;46837;52.446;-1.930;2023-05-10T04:12:09;99762.50;;;9.52;81.07
60642;BME280;46837;52.446;-1.930;2023-05-10T04:13:09;99758.62;;;9.53;80.87
60642;BME280;46837;52.446;-1.930;2023-05-10T04:14:09;99759.39;;;9.53;80.84
60642;BME280;46837;52.446;-1.930;2023-05-10T04:15:09;99760.81;;;9.53;80.78
60642;BME280;46837;52.446;-1.930;2023-05-10T04:16:09;99761.19;;;9.53;80.87
60642;BME280;46837;52.446;-1.930;2023-05-10T04:17:09;99765.16;;;9.52;80.92
60642;BME280;46837;52.446;-1.930;2023-05-10T04:18:09;99764.96;;;9.54;80.84
60642;BME280;46837;52.446;-1.930;2023-05-10T04:19:09;99763.58;;;9.55;80.82
60642;BME280;46837;52.446;-1.930;2023-05-10T04:20:09;99763.42;;;9.53;80.67
60642;BME280;46837;52.446;-1.930;2023-05-10T04:21:13;99765.17;;;9.53;80.75
60642;BME280;46837;52.446;-1.930;2023-05-10T04:22:09;99764.12;;;9.55;80.68
60642;BME280;46837;52.446;-1.930;2023-05-10T04:23:09;99766.10;;;9.56;80.53
60642;BME280;46837;52.446;-1.930;2023-05-10T04:24:09;99765.99;;;9.53;80.43
60642;BME280;46837;52.446;-1.930;2023-05-10T04:25:09;99767.29;;;9.52;80.52
60642;BME280;46837;52.446;-1.930;2023-05-10T04:26:09;99767.36;;;9.53;80.59
60642;BME280;46837;52.446;-1.930;2023-05-10T04:27:09;99768.60;;;9.52;80.57
60642;BME280;46837;52.446;-1.930;2023-05-10T04:28:09;99770.02;;;9.52;80.70
60642;BME280;46837;52.446;-1.930;2023-05-10T04:29:09;99770.74;;;9.54;80.63
60642;BME280;46837;52.446;-1.930;2023-05-10T04:30:09;99771.16;;;9.52;80.62
60642;BME280;46837;52.446;-1.930;2023-05-10T04:31:09;99771.06;;;9.53;80.70
60642;BME280;46837;52.446;-1.930;2023-05-10T04:32:09;99771.94;;;9.54;80.65
60642;BME280;46837;52.446;-1.930;2023-05-10T04:33:09;99770.58;;;9.54;80.72
60642;BME280;46837;52.446;-1.930;2023-05-10T04:34:09;99769.64;;;9.55;80.66
60642;BME280;46837;52.446;-1.930;2023-05-10T04:35:09;99771.23;;;9.56;80.71
60642;BME280;46837;52.446;-1.930;2023-05-10T04:36:09;99773.03;;;9.56;80.70
60642;BME280;46837;52.446;-1.930;2023-05-10T04:37:09;99773.69;;;9.54;80.77
60642;BME280;46837;52.446;-1.930;2023-05-10T04:38:09;99772.81;;;9.53;80.83
60642;BME280;46837;52.446;-1.930;2023-05-10T04:39:09;99770.80;;;9.54;80.81
60642;BME280;46837;52.446;-1.930;2023-05-10T04:40:09;99769.43;;;9.54;80.72
60642;BME280;46837;52.446;-1.930;2023-05-10T04:41:09;99773.18;;;9.52;80.90
60642;BME280;46837;52.446;-1.930;2023-05-10T04:42:09;99772.64;;;9.53;80.96
60642;BME280;46837;52.446;-1.930;2023-05-10T04:43:09;99774.00;;;9.52;80.90
60642;BME280;46837;52.446;-1.930;2023-05-10T04:44:09;99775.76;;;9.47;81.05
60642;BME280;46837;52.446;-1.930;2023-05-10T04:45:09;99779.88;;;9.48;81.12
60642;BME280;46837;52.446;-1.930;2023-05-10T04:46:09;99777.00;;;9.45;81.15
60642;BME280;46837;52.446;-1.930;2023-05-10T04:47:09;99779.13;;;9.46;81.27
60642;BME280;46837;52.446;-1.930;2023-05-10T04:48:09;99781.32;;;9.47;81.23
60642;BME280;46837;52.446;-1.930;2023-05-10T04:49:09;99784.75;;;9.43;81.48
60642;BME280;46837;52.446;-1.930;2023-05-10T04:50:09;99779.44;;;9.41;81.57
60642;BME280;46837;52.446;-1.930;2023-05-10T04:51:09;99781.89;;;9.41;81.90
60642;BME280;46837;52.446;-1.930;2023-05-10T04:52:09;99776.99;;;9.39;81.98
60642;BME280;46837;52.446;-1.930;2023-05-10T04:53:09;99778.80;;;9.40;82.14
60642;BME280;46837;52.446;-1.930;2023-05-10T04:54:09;99779.61;;;9.44;82.12
60642;BME280;46837;52.446;-1.930;2023-05-10T04:55:10;99776.79;;;9.50;82.03
60642;BME280;46837;52.446;-1.930;2023-05-10T04:56:09;99771.94;;;9.53;81.88
60642;BME280;46837;52.446;-1.930;2023-05-10T04:57:09;99771.01;;;9.59;81.80
60642;BME280;46837;52.446;-1.930;2023-05-10T04:58:09;99777.07;;;9.57;81.66
60642;BME280;46837;52.446;-1.930;2023-05-10T04:59:09;99769.80;;;9.52;81.89
60642;BME280;46837;52.446;-1.930;2023-05-10T05:00:09;99776.69;;;9.58;81.99
60642;BME280;46837;52.446;-1.930;2023-05-10T05:01:09;99775.49;;;9.61;81.83
60642;BME280;46837;52.446;-1.930;2023-05-10T05:02:09;99779.04;;;9.67;81.73
60642;BME280;46837;52.446;-1.930;2023-05-10T05:03:09;99780.06;;;9.69;81.62
60642;BME280;46837;52.446;-1.930;2023-05-10T05:04:09;99781.00;;;9.74;81.60
60642;BME280;46837;52.446;-1.930;2023-05-10T05:05:09;99781.32;;;9.76;81.59
60642;BME280;46837;52.446;-1.930;2023-05-10T05:06:09;99782.25;;;9.82;81.55
60642;BME280;46837;52.446;-1.930;2023-05-10T05:07:09;99783.99;;;9.83;81.42
60642;BME280;46837;52.446;-1.930;2023-05-10T05:08:09;99784.93;;;9.85;81.45
60642;BME280;46837;52.446;-1.930;2023-05-10T05:09:09;99781.49;;;9.89;81.43
60642;BME280;46837;52.446;-1.930;2023-05-10T05:10:09;99783.33;;;9.94;81.50
60642;BME280;46837;52.446;-1.930;2023-05-10T05:11:09;99782.40;;;9.90;81.66
60642;BME280;46837;52.446;-1.930;2023-05-10T05:12:09;99784.27;;;9.88;81.86
60642;BME280;46837;52.446;-1.930;2023-05-10T05:13:09;99788.26;;;9.86;82.04
60642;BME280;46837;52.446;-1.930;2023-05-10T05:14:09;99788.90;;;9.84;82.26
60642;BME280;46837;52.446;-1.930;2023-05-10T05:15:09;99788.25;;;9.88;82.54
60642;BME280;46837;52.446;-1.930;2023-05-10T05:16:09;99790.43;;;9.87;82.49
60642;BME280;46837;52.446;-1.930;2023-05-10T05:17:09;99789.79;;;9.92;82.48
60642;BME280;46837;52.446;-1.930;2023-05-10T05:18:09;99788.29;;;9.97;82.42
60642;BME280;46837;52.446;-1.930;2023-05-10T05:19:09;99793.16;;;10.02;82.36
60642;BME280;46837;52.446;-1.930;2023-05-10T05:20:09;99792.06;;;10.05;82.25
60642;BME280;46837;52.446;-1.930;2023-05-10T05:21:13;99795.70;;;10.11;82.11
60642;BME280;46837;52.446;-1.930;2023-05-10T05:22:09;99794.07;;;10.16;81.99
60642;BME280;46837;52.446;-1.930;2023-05-10T05:23:09;99791.72;;;10.21;81.86
60642;BME280;46837;52.446;-1.930;2023-05-10T05:24:09;99794.03;;;10.26;81.82
60642;BME280;46837;52.446;-1.930;2023-05-10T05:25:09;99794.19;;;10.31;81.61
60642;BME280;46837;52.446;-1.930;2023-05-10T05:26:09;99799.27;;;10.35;81.52
60642;BME280;46837;52.446;-1.930;2023-05-10T05:27:09;99794.34;;;10.38;81.51
60642;BME280;46837;52.446;-1.930;2023-05-10T05:28:09;99794.44;;;10.41;81.48
60642;BME280;46837;52.446;-1.930;2023-05-10T05:29:09;99795.30;;;10.44;81.45
60642;BME280;46837;52.446;-1.930;2023-05-10T05:30:09;99795.03;;;10.44;81.38
60642;BME280;46837;52.446;-1.930;2023-05-10T05:31:09;99792.53;;;10.41;81.57
60642;BME280;46837;52.446;-1.930;2023-05-10T05:32:09;99794.65;;;10.44;81.44
60642;BME280;46837;52.446;-1.930;2023-05-10T05:33:09;99796.82;;;10.47;81.23